Time,TemperatureF,DewpointF,PressureIn,WindDirection,WindDirectionDegrees,WindSpeedMPH,WindSpeedGustMPH,Humidity,HourlyPrecipIn,Conditions,Clouds,dailyrainin,SoftwareType,DateUTC
2013-08-21 00:00:00,80.0,69.3,30.09,NE,39,0.0,1.0,70,0.00,,,0.00,VWS V14.00,2013-08-21 04:00:00,
2013-08-21 00:01:00,80.0,69.3,30.09,NE,39,0.0,1.0,70,0.00,,,0.00,VWS V14.00,2013-08-21 04:01:00,
2013-08-21 00:02:00,80.0,69.3,30.09,NE,38,0.0,1.0,70,0.00,,,0.00,VWS V14.00,2013-08-21 04:02:00,
2013-08-21 00:03:00,80.0,69.3,30.09,NE,38,0.0,0.0,70,0.00,,,0.00,VWS V14.00,2013-08-21 04:03:00,
2013-08-21 00:07:00,79.9,68.8,30.09,NE,38,0.0,0.0,69,0.00,,,0.00,VWS V14.00,2013-08-21 04:07:00,
2013-08-21 00:12:00,79.8,68.7,30.08,NE,38,0.0,0.0,69,0.00,,,0.00,VWS V14.00,2013-08-21 04:12:00,
2013-08-21 00:17:00,79.8,68.7,30.09,NE,39,0.0,0.0,69,0.00,,,0.00,VWS V14.00,2013-08-21 04:17:00,
2013-08-21 00:22:00,79.7,68.6,30.09,NE,39,0.0,0.0,69,0.00,,,0.00,VWS V14.00,2013-08-21 04:22:00,
2013-08-21 00:27:00,79.6,68.5,30.09,NE,38,0.0,0.0,69,0.00,,,0.00,VWS V14.00,2013-08-21 04:27:00,
2013-08-21 00:30:00,80.1,70.3,30.10,NE,39,0.0,0.0,72,0.00,,,0.00,VWS V14.00,2013-08-21 04:30:00,
2013-08-21 00:32:00,79.6,68.5,30.09,NE,39,0.0,0.0,69,0.00,,,0.00,VWS V14.00,2013-08-21 04:32:00,
2013-08-21 00:37:00,79.5,68.4,30.09,NE,38,0.0,1.0,69,0.00,,,0.00,VWS V14.00,2013-08-21 04:37:00,
2013-08-21 00:42:00,79.5,68.4,30.09,NE,39,0.0,1.0,69,0.00,,,0.00,VWS V14.00,2013-08-21 04:42:00,
2013-08-21 00:47:00,79.5,68.4,30.09,NE,38,0.0,1.0,69,0.00,,,0.00,VWS V14.00,2013-08-21 04:47:00,
2013-08-21 00:52:00,79.5,68.0,30.09,NE,39,0.0,1.0,68,0.00,,,0.00,VWS V14.00,2013-08-21 04:52:00,
2013-08-21 00:57:00,79.4,67.9,30.09,NE,39,0.0,1.0,68,0.00,,,0.00,VWS V14.00,2013-08-21 04:57:00,
2013-08-21 01:00:00,80.0,69.3,30.09,NE,39,0.0,1.0,70,0.00,,,0.00,VWS V14.00,2013-08-21 05:00:00,
2013-08-21 01:03:00,79.4,67.9,30.09,NE,39,0.0,0.0,68,0.00,,,0.00,VWS V14.00,2013-08-21 05:03:00,
2013-08-21 01:08:00,79.4,67.9,30.09,NE,39,0.0,0.0,68,0.00,,,0.00,VWS V14.00,2013-08-21 05:08:00,
2013-08-21 01:13:00,79.3,67.8,30.09,NE,38,0.0,0.0,68,0.00,,,0.00,VWS V14.00,2013-08-21 05:13:00,
2013-08-21 01:18:00,79.3,67.8,30.08,NE,39,0.0,0.0,68,0.00,,,0.00,VWS V14.00,2013-08-21 05:18:00,
2013-08-21 01:23:00,79.2,67.7,30.08,NE,39,0.0,0.0,68,0.00,,,0.00,VWS V14.00,2013-08-21 05:23:00,
2013-08-21 01:28:00,79.2,67.7,30.09,NE,38,0.0,1.0,68,0.00,,,0.00,VWS V14.00,2013-08-21 05:28:00,
2013-08-21 01:30:00,79.6,68.5,30.10,NE,39,0.0,0.0,69,0.00,,,0.00,VWS V14.00,2013-08-21 05:30:00,
2013-08-21 01:33:00,79.1,67.6,30.09,NE,39,0.0,0.0,68,0.00,,,0.00,VWS V14.00,2013-08-21 05:33:00,
2013-08-21 01:38:00,79.1,67.6,30.09,NE,38,0.0,0.0,68,0.00,,,0.00,VWS V14.00,2013-08-21 05:38:00,
2013-08-21 01:43:00,79.1,67.6,30.09,NE,39,0.0,0.0,68,0.00,,,0.00,VWS V14.00,2013-08-21 05:43:00,
2013-08-21 01:48:00,79.0,67.6,30.09,NE,39,0.0,0.0,68,0.00,,,0.00,VWS V14.00,2013-08-21 05:48:00,
2013-08-21 01:53:00,78.8,67.4,30.08,NE,38,0.0,1.0,68,0.00,,,0.00,VWS V14.00,2013-08-21 05:53:00,
2013-08-21 01:58:00,78.8,67.4,30.08,NE,39,0.0,1.0,68,0.00,,,0.00,VWS V14.00,2013-08-21 05:58:00,
2013-08-21 02:00:00,79.4,67.9,30.09,NE,39,0.0,1.0,68,0.00,,,0.00,VWS V14.00,2013-08-21 06:00:00,
2013-08-21 02:03:00,78.7,67.3,30.08,NE,38,0.0,0.0,68,0.00,,,0.00,VWS V14.00,2013-08-21 06:03:00,
2013-08-21 02:08:00,78.7,67.3,30.08,NNE,20,0.0,3.0,68,0.00,,,0.00,VWS V14.00,2013-08-21 06:08:00,
2013-08-21 02:13:00,78.7,67.3,30.07,NNE,19,0.0,3.0,68,0.00,,,0.00,VWS V14.00,2013-08-21 06:13:00,
2013-08-21 02:18:00,78.7,67.3,30.07,NNE,20,0.0,3.0,68,0.00,,,0.00,VWS V14.00,2013-08-21 06:18:00,
2013-08-21 02:23:00,78.7,67.3,30.07,NNE,20,0.0,3.0,68,0.00,,,0.00,VWS V14.00,2013-08-21 06:23:00,
2013-08-21 02:28:00,78.7,67.3,30.08,NNE,20,0.0,3.0,68,0.00,,,0.00,VWS V14.00,2013-08-21 06:28:00,
2013-08-21 02:30:00,79.2,67.7,30.09,NE,38,0.0,1.0,68,0.00,,,0.00,VWS V14.00,2013-08-21 06:30:00,
2013-08-21 02:33:00,78.5,67.1,30.08,NNE,19,0.0,0.0,68,0.00,,,0.00,VWS V14.00,2013-08-21 06:33:00,
2013-08-21 02:38:00,78.5,67.1,30.07,NNE,20,0.0,1.0,68,0.00,,,0.00,VWS V14.00,2013-08-21 06:38:00,
2013-08-21 02:43:00,78.5,67.1,30.08,NNE,19,0.0,1.0,68,0.00,,,0.00,VWS V14.00,2013-08-21 06:43:00,
2013-08-21 02:48:00,78.5,67.1,30.08,NNE,20,0.0,1.0,68,0.00,,,0.00,VWS V14.00,2013-08-21 06:48:00,
2013-08-21 02:53:00,78.4,67.0,30.08,NNE,20,0.0,1.0,68,0.00,,,0.00,VWS V14.00,2013-08-21 06:53:00,
2013-08-21 02:58:00,78.3,66.9,30.08,NNE,19,0.0,1.0,68,0.00,,,0.00,VWS V14.00,2013-08-21 06:58:00,
2013-08-21 03:00:00,78.7,67.3,30.08,NE,39,0.0,1.0,68,0.00,,,0.00,VWS V14.00,2013-08-21 07:00:00,
2013-08-21 03:03:00,78.3,66.9,30.08,NNE,20,0.0,0.0,68,0.00,,,0.00,VWS V14.00,2013-08-21 07:03:00,
2013-08-21 03:08:00,78.2,66.8,30.08,NNE,19,0.0,0.0,68,0.00,,,0.00,VWS V14.00,2013-08-21 07:08:00,
2013-08-21 03:13:00,78.2,66.8,30.07,NNE,20,0.0,0.0,68,0.00,,,0.00,VWS V14.00,2013-08-21 07:13:00,
2013-08-21 03:18:00,78.1,66.7,30.07,NNE,19,0.0,1.0,68,0.00,,,0.00,VWS V14.00,2013-08-21 07:18:00,
2013-08-21 03:23:00,78.1,66.7,30.07,NNE,20,0.0,1.0,68,0.00,,,0.00,VWS V14.00,2013-08-21 07:23:00,
2013-08-21 03:28:00,78.1,66.3,30.06,NNE,19,0.0,1.0,67,0.00,,,0.00,VWS V14.00,2013-08-21 07:28:00,
2013-08-21 03:30:00,78.5,67.1,30.08,NNE,19,0.0,3.0,68,0.00,,,0.00,VWS V14.00,2013-08-21 07:30:00,
2013-08-21 03:33:00,78.1,66.3,30.06,NNE,20,0.0,0.0,67,0.00,,,0.00,VWS V14.00,2013-08-21 07:33:00,
2013-08-21 03:38:00,78.0,66.2,30.06,NNE,19,0.0,0.0,67,0.00,,,0.00,VWS V14.00,2013-08-21 07:38:00,
2013-08-21 03:43:00,78.0,66.2,30.06,NNE,19,0.0,0.0,67,0.00,,,0.00,VWS V14.00,2013-08-21 07:43:00,
2013-08-21 03:48:00,78.0,66.2,30.06,NNE,19,0.0,0.0,67,0.00,,,0.00,VWS V14.00,2013-08-21 07:48:00,
2013-08-21 03:53:00,78.0,66.2,30.06,NNE,20,0.0,0.0,67,0.00,,,0.00,VWS V14.00,2013-08-21 07:53:00,
2013-08-21 03:58:00,78.0,66.2,30.06,NNE,19,0.0,0.0,67,0.00,,,0.00,VWS V14.00,2013-08-21 07:58:00,
2013-08-21 04:00:00,78.3,66.9,30.08,NNE,19,0.0,1.0,68,0.00,,,0.00,VWS V14.00,2013-08-21 08:00:00,
2013-08-21 04:03:00,77.9,66.1,30.06,NNE,20,0.0,0.0,67,0.00,,,0.00,VWS V14.00,2013-08-21 08:03:00,
2013-08-21 04:08:00,77.9,66.1,30.06,NNE,19,0.0,0.0,67,0.00,,,0.00,VWS V14.00,2013-08-21 08:08:00,
2013-08-21 04:13:00,77.8,66.0,30.06,NNE,19,0.0,0.0,67,0.00,,,0.00,VWS V14.00,2013-08-21 08:13:00,
2013-08-21 04:18:00,77.7,65.9,30.06,NNE,20,0.0,0.0,67,0.00,,,0.00,VWS V14.00,2013-08-21 08:18:00,
2013-08-21 04:23:00,77.6,65.8,30.05,NNE,19,0.0,0.0,67,0.00,,,0.00,VWS V14.00,2013-08-21 08:23:00,
2013-08-21 04:28:00,77.6,65.8,30.05,NNE,20,0.0,0.0,67,0.00,,,0.00,VWS V14.00,2013-08-21 08:28:00,
2013-08-21 04:30:00,78.1,66.3,30.06,NNE,20,0.0,1.0,67,0.00,,,0.00,VWS V14.00,2013-08-21 08:30:00,
2013-08-21 04:33:00,77.6,65.8,30.05,NNE,20,0.0,0.0,67,0.00,,,0.00,VWS V14.00,2013-08-21 08:33:00,
2013-08-21 04:38:00,77.5,65.7,30.05,NNE,19,0.0,0.0,67,0.00,,,0.00,VWS V14.00,2013-08-21 08:38:00,
2013-08-21 04:43:00,77.5,65.7,30.05,NNE,20,0.0,0.0,67,0.00,,,0.00,VWS V14.00,2013-08-21 08:43:00,
2013-08-21 04:48:00,77.4,65.6,30.04,NNE,19,0.0,0.0,67,0.00,,,0.00,VWS V14.00,2013-08-21 08:48:00,
2013-08-21 04:54:00,77.4,65.6,30.04,NNE,20,0.0,0.0,67,0.00,,,0.00,VWS V14.00,2013-08-21 08:54:00,
2013-08-21 04:59:00,77.3,65.5,30.05,NNE,19,0.0,0.0,67,0.00,,,0.00,VWS V14.00,2013-08-21 08:59:00,
2013-08-21 05:00:00,77.9,66.1,30.06,NNE,20,0.0,0.0,67,0.00,,,0.00,VWS V14.00,2013-08-21 09:00:00,
2013-08-21 05:04:00,77.3,65.5,30.05,NNE,19,0.0,0.0,67,0.00,,,0.00,VWS V14.00,2013-08-21 09:04:00,
2013-08-21 05:09:00,77.2,65.4,30.05,NNE,20,0.0,0.0,67,0.00,,,0.00,VWS V14.00,2013-08-21 09:09:00,
2013-08-21 05:14:00,77.1,65.3,30.05,NNE,20,0.0,0.0,67,0.00,,,0.00,VWS V14.00,2013-08-21 09:14:00,
2013-08-21 05:19:00,77.0,65.2,30.05,NNE,20,0.0,0.0,67,0.00,,,0.00,VWS V14.00,2013-08-21 09:19:00,
2013-08-21 05:24:00,77.0,65.2,30.06,NNE,20,0.0,0.0,67,0.00,,,0.00,VWS V14.00,2013-08-21 09:24:00,
2013-08-21 05:29:00,77.0,65.2,30.06,NNE,19,0.0,0.0,67,0.00,,,0.00,VWS V14.00,2013-08-21 09:29:00,
2013-08-21 05:30:00,77.6,65.8,30.05,NNE,20,0.0,0.0,67,0.00,,,0.00,VWS V14.00,2013-08-21 09:30:00,
2013-08-21 05:34:00,76.9,65.1,30.06,NNE,20,0.0,0.0,67,0.00,,,0.00,VWS V14.00,2013-08-21 09:34:00,
2013-08-21 05:39:00,76.9,65.1,30.06,NNE,19,0.0,0.0,67,0.00,,,0.00,VWS V14.00,2013-08-21 09:39:00,
2013-08-21 05:44:00,76.9,65.1,30.06,NNE,20,0.0,0.0,67,0.00,,,0.00,VWS V14.00,2013-08-21 09:44:00,
2013-08-21 05:49:00,76.9,65.1,30.06,NNE,20,0.0,0.0,67,0.00,,,0.00,VWS V14.00,2013-08-21 09:49:00,
2013-08-21 05:54:00,76.9,65.1,30.06,NNE,20,0.0,0.0,67,0.00,,,0.00,VWS V14.00,2013-08-21 09:54:00,
2013-08-21 05:59:00,76.9,64.7,30.06,NNE,20,0.0,0.0,66,0.00,,,0.00,VWS V14.00,2013-08-21 09:59:00,
2013-08-21 06:00:00,77.3,65.5,30.05,NNE,20,0.0,0.0,67,0.00,,,0.00,VWS V14.00,2013-08-21 10:00:00,
2013-08-21 06:04:00,76.9,64.7,30.06,NNE,20,0.0,0.0,66,0.00,,,0.00,VWS V14.00,2013-08-21 10:04:00,
2013-08-21 06:09:00,77.0,64.8,30.06,NNE,20,0.0,0.0,66,0.00,,,0.00,VWS V14.00,2013-08-21 10:09:00,
2013-08-21 06:14:00,77.0,64.8,30.06,NNE,20,0.0,0.0,66,0.00,,,0.00,VWS V14.00,2013-08-21 10:14:00,
2013-08-21 06:19:00,77.1,64.9,30.06,NNE,19,0.0,0.0,66,0.00,,,0.00,VWS V14.00,2013-08-21 10:19:00,
2013-08-21 06:24:00,77.2,65.0,30.06,NNE,20,0.0,0.0,66,0.00,,,0.00,VWS V14.00,2013-08-21 10:24:00,
2013-08-21 06:29:00,77.3,65.1,30.06,NNE,19,0.0,0.0,66,0.00,,,0.00,VWS V14.00,2013-08-21 10:29:00,
2013-08-21 06:30:00,76.9,65.1,30.06,NNE,19,0.0,0.0,67,0.00,,,0.00,VWS V14.00,2013-08-21 10:30:00,
2013-08-21 06:34:00,77.3,65.1,30.06,NNE,19,0.0,0.0,66,0.00,,,0.00,VWS V14.00,2013-08-21 10:34:00,
2013-08-21 06:39:00,77.3,65.1,30.06,NNE,20,0.0,0.0,66,0.00,,,0.00,VWS V14.00,2013-08-21 10:39:00,
2013-08-21 06:44:00,77.2,65.0,30.06,NNE,20,0.0,0.0,66,0.00,,,0.00,VWS V14.00,2013-08-21 10:44:00,
2013-08-21 06:49:00,77.0,64.8,30.06,NNE,20,0.0,0.0,66,0.00,,,0.00,VWS V14.00,2013-08-21 10:49:00,
2013-08-21 06:54:00,76.9,64.7,30.06,NNE,20,0.0,0.0,66,0.00,,,0.00,VWS V14.00,2013-08-21 10:54:00,
2013-08-21 06:59:00,76.8,65.0,30.06,NNE,20,0.0,0.0,67,0.00,,,0.00,VWS V14.00,2013-08-21 10:59:00,
2013-08-21 07:00:00,76.9,64.7,30.06,NNE,20,0.0,0.0,66,0.00,,,0.00,VWS V14.00,2013-08-21 11:00:00,
2013-08-21 07:04:00,76.8,64.6,30.06,NNE,20,0.0,0.0,66,0.00,,,0.00,VWS V14.00,2013-08-21 11:04:00,
2013-08-21 07:09:00,76.8,64.6,30.06,NNE,19,0.0,0.0,66,0.00,,,0.00,VWS V14.00,2013-08-21 11:09:00,
2013-08-21 07:14:00,76.9,64.7,30.07,NNE,20,0.0,0.0,66,0.00,,,0.00,VWS V14.00,2013-08-21 11:14:00,
2013-08-21 07:19:00,77.0,64.8,30.07,NNE,20,0.0,0.0,66,0.00,,,0.00,VWS V14.00,2013-08-21 11:19:00,
2013-08-21 07:24:00,77.0,65.2,30.07,NNE,20,0.0,0.0,67,0.00,,,0.00,VWS V14.00,2013-08-21 11:24:00,
2013-08-21 07:29:00,77.1,64.9,30.07,NNE,20,0.0,0.0,66,0.00,,,0.00,VWS V14.00,2013-08-21 11:29:00,
2013-08-21 07:30:00,77.3,65.1,30.06,NNE,19,0.0,0.0,66,0.00,,,0.00,VWS V14.00,2013-08-21 11:30:00,
2013-08-21 07:34:00,77.2,65.0,30.08,NNE,19,0.0,0.0,66,0.00,,,0.00,VWS V14.00,2013-08-21 11:34:00,
2013-08-21 07:39:00,77.3,65.1,30.08,NNE,20,0.0,0.0,66,0.00,,,0.00,VWS V14.00,2013-08-21 11:39:00,
2013-08-21 07:44:00,77.4,65.2,30.08,NNE,20,0.0,0.0,66,0.00,,,0.00,VWS V14.00,2013-08-21 11:44:00,
2013-08-21 07:49:00,77.5,65.3,30.08,NNE,19,0.0,0.0,66,0.00,,,0.00,VWS V14.00,2013-08-21 11:49:00,
2013-08-21 07:54:00,77.6,65.3,30.09,NNE,20,0.0,0.0,66,0.00,,,0.00,VWS V14.00,2013-08-21 11:54:00,
2013-08-21 07:59:00,77.8,65.5,30.09,NNE,19,0.0,0.0,66,0.00,,,0.00,VWS V14.00,2013-08-21 11:59:00,
2013-08-21 08:00:00,76.8,65.0,30.06,NNE,20,0.0,0.0,67,0.00,,,0.00,VWS V14.00,2013-08-21 12:00:00,
2013-08-21 08:05:00,78.0,65.7,30.09,NNE,20,0.0,0.0,66,0.00,,,0.00,VWS V14.00,2013-08-21 12:05:00,
2013-08-21 08:10:00,78.4,66.1,30.09,NNE,20,0.0,0.0,66,0.00,,,0.00,VWS V14.00,2013-08-21 12:10:00,
2013-08-21 08:15:00,78.7,66.4,30.10,NNE,19,0.0,0.0,66,0.00,,,0.00,VWS V14.00,2013-08-21 12:15:00,
2013-08-21 08:20:00,78.8,66.5,30.10,NNE,19,0.0,0.0,66,0.00,,,0.00,VWS V14.00,2013-08-21 12:20:00,
2013-08-21 08:25:00,79.0,66.7,30.10,NNE,20,0.0,0.0,66,0.00,,,0.00,VWS V14.00,2013-08-21 12:25:00,
2013-08-21 08:30:00,79.2,66.9,30.09,NNE,20,0.0,0.0,66,0.00,,,0.00,VWS V14.00,2013-08-21 12:30:00,
2013-08-21 08:35:00,79.5,67.6,30.10,NE,48,0.0,1.0,67,0.00,,,0.00,VWS V14.00,2013-08-21 12:35:00,
2013-08-21 08:40:00,80.0,68.1,30.10,NE,48,1.0,1.0,67,0.00,,,0.00,VWS V14.00,2013-08-21 12:40:00,
2013-08-21 08:45:00,80.4,68.4,30.09,NNE,15,0.0,3.0,67,0.00,,,0.00,VWS V14.00,2013-08-21 12:45:00,
2013-08-21 08:50:00,80.8,68.8,30.09,NNE,14,0.0,3.0,67,0.00,,,0.00,VWS V14.00,2013-08-21 12:50:00,
2013-08-21 08:55:00,81.1,69.1,30.09,NNE,22,0.0,3.0,67,0.00,,,0.00,VWS V14.00,2013-08-21 12:55:00,
2013-08-21 09:00:00,81.4,69.4,30.09,NNE,21,0.0,3.0,67,0.00,,,0.00,VWS V14.00,2013-08-21 13:00:00,
2013-08-21 09:05:00,81.9,70.3,30.09,NNE,21,0.0,0.0,68,0.00,,,0.00,VWS V14.00,2013-08-21 13:05:00,
2013-08-21 09:10:00,82.1,70.5,30.09,NNE,13,0.0,2.0,68,0.00,,,0.00,VWS V14.00,2013-08-21 13:10:00,
2013-08-21 09:15:00,82.3,70.7,30.09,NNE,13,0.0,2.0,68,0.00,,,0.00,VWS V14.00,2013-08-21 13:15:00,
2013-08-21 09:20:00,82.7,71.1,30.10,NNE,13,0.0,2.0,68,0.00,,,0.00,VWS V14.00,2013-08-21 13:20:00,
2013-08-21 09:25:00,83.3,71.6,30.10,NE,51,0.0,2.0,68,0.00,,,0.00,VWS V14.00,2013-08-21 13:25:00,
2013-08-21 09:30:00,83.6,71.9,30.11,SSE,155,0.0,2.0,68,0.00,,,0.00,VWS V14.00,2013-08-21 13:30:00,
2013-08-21 09:35:00,83.6,72.4,30.11,SSE,155,0.0,0.0,69,0.00,,,0.00,VWS V14.00,2013-08-21 13:35:00,
2013-08-21 09:40:00,83.6,72.4,30.11,North,355,0.0,5.0,69,0.00,,,0.00,VWS V14.00,2013-08-21 13:40:00,
2013-08-21 09:45:00,83.8,72.1,30.11,North,11,0.0,5.0,68,0.00,,,0.00,VWS V14.00,2013-08-21 13:45:00,
2013-08-21 09:50:00,83.8,72.6,30.11,SW,219,0.0,5.0,69,0.00,,,0.00,VWS V14.00,2013-08-21 13:50:00,
2013-08-21 09:55:00,83.8,72.6,30.11,NW,315,0.0,5.0,69,0.00,,,0.00,VWS V14.00,2013-08-21 13:55:00,
2013-08-21 10:00:00,84.2,72.9,30.11,NW,315,0.0,5.0,69,0.00,,,0.00,VWS V14.00,2013-08-21 14:00:00,
2013-08-21 10:05:00,84.4,73.1,30.11,NW,315,0.0,0.0,69,0.00,,,0.00,VWS V14.00,2013-08-21 14:05:00,
2013-08-21 10:10:00,84.7,73.4,30.11,NW,315,0.0,0.0,69,0.00,,,0.00,VWS V14.00,2013-08-21 14:10:00,
2013-08-21 10:15:00,84.9,73.6,30.11,NW,315,0.0,0.0,69,0.00,,,0.00,VWS V14.00,2013-08-21 14:15:00,
2013-08-21 10:20:00,85.0,73.7,30.11,NNE,18,0.0,0.0,69,0.00,,,0.00,VWS V14.00,2013-08-21 14:20:00,
2013-08-21 10:25:00,85.1,73.8,30.11,North,355,0.0,1.0,69,0.00,,,0.00,VWS V14.00,2013-08-21 14:25:00,
2013-08-21 10:30:00,85.2,73.9,30.11,SW,215,0.0,1.0,69,0.00,,,0.00,VWS V14.00,2013-08-21 14:30:00,
2013-08-21 10:35:00,85.5,74.2,30.11,NW,324,0.0,0.0,69,0.00,,,0.00,VWS V14.00,2013-08-21 14:35:00,
2013-08-21 10:40:00,86.0,74.7,30.11,South,181,0.0,3.0,69,0.00,,,0.00,VWS V14.00,2013-08-21 14:40:00,
2013-08-21 10:45:00,86.3,74.9,30.11,SW,215,0.0,3.0,69,0.00,,,0.00,VWS V14.00,2013-08-21 14:45:00,
2013-08-21 10:50:00,86.8,75.4,30.11,NW,315,0.0,3.0,69,0.00,,,0.00,VWS V14.00,2013-08-21 14:50:00,
2013-08-21 10:55:00,86.9,75.5,30.11,NNE,19,0.0,4.0,69,0.00,,,0.00,VWS V14.00,2013-08-21 14:55:00,
2013-08-21 11:00:00,87.1,75.7,30.11,North,360,0.0,4.0,69,0.00,,,0.00,VWS V14.00,2013-08-21 15:00:00,
2013-08-21 11:05:00,87.1,75.7,30.12,North,355,0.0,2.0,69,0.00,,,0.00,VWS V14.00,2013-08-21 15:05:00,
2013-08-21 11:10:00,87.3,75.9,30.11,North,360,0.0,5.0,69,0.00,,,0.00,VWS V14.00,2013-08-21 15:10:00,
2013-08-21 11:15:00,87.4,75.6,30.11,East,83,0.0,6.0,68,0.00,,,0.00,VWS V14.00,2013-08-21 15:15:00,
2013-08-21 11:20:00,87.5,75.6,30.11,ENE,63,0.0,6.0,68,0.00,,,0.00,VWS V14.00,2013-08-21 15:20:00,
2013-08-21 11:25:00,87.5,76.1,30.11,ENE,65,0.0,6.0,69,0.00,,,0.00,VWS V14.00,2013-08-21 15:25:00,
2013-08-21 11:30:00,87.5,75.6,30.11,ESE,107,0.0,6.0,68,0.00,,,0.00,VWS V14.00,2013-08-21 15:30:00,
2013-08-21 11:35:00,87.8,76.4,30.11,South,189,0.0,1.0,69,0.00,,,0.00,VWS V14.00,2013-08-21 15:35:00,
2013-08-21 11:40:00,88.7,76.8,30.11,South,189,0.0,1.0,68,0.00,,,0.00,VWS V14.00,2013-08-21 15:40:00,
2013-08-21 11:45:00,89.6,77.2,30.11,ENE,76,0.0,2.0,67,0.00,,,0.00,VWS V14.00,2013-08-21 15:45:00,
2013-08-21 11:50:00,90.5,78.1,30.11,ENE,64,0.0,2.0,67,0.00,,,0.00,VWS V14.00,2013-08-21 15:50:00,
2013-08-21 11:56:00,91.0,78.1,30.10,WNW,302,0.0,2.0,66,0.00,,,0.00,VWS V14.00,2013-08-21 15:56:00,
2013-08-21 12:00:00,87.1,75.7,30.11,North,360,0.0,4.0,69,0.00,,,0.00,VWS V14.00,2013-08-21 16:00:00,
2013-08-21 12:01:00,90.8,77.4,30.10,NNE,29,1.0,5.0,65,0.00,,,0.00,VWS V14.00,2013-08-21 16:01:00,
2013-08-21 12:06:00,90.2,77.3,30.10,NNE,19,0.0,4.0,66,0.00,,,0.00,VWS V14.00,2013-08-21 16:06:00,
2013-08-21 12:11:00,90.3,77.4,30.10,West,262,0.0,4.0,66,0.00,,,0.00,VWS V14.00,2013-08-21 16:11:00,
2013-08-21 12:16:00,90.7,77.8,30.10,NE,50,0.0,4.0,66,0.00,,,0.00,VWS V14.00,2013-08-21 16:16:00,
2013-08-21 12:21:00,91.0,77.1,30.10,NE,46,0.0,4.0,64,0.00,,,0.00,VWS V14.00,2013-08-21 16:21:00,
2013-08-21 12:26:00,91.6,77.2,30.09,South,190,0.0,4.0,63,0.00,,,0.00,VWS V14.00,2013-08-21 16:26:00,
2013-08-21 12:30:00,87.6,76.2,30.11,ESE,106,0.0,6.0,69,0.00,,,0.00,VWS V14.00,2013-08-21 16:30:00,
2013-08-21 12:31:00,91.8,77.4,30.09,South,180,0.0,4.0,63,0.00,,,0.00,VWS V14.00,2013-08-21 16:31:00,
2013-08-21 12:36:00,91.7,76.3,30.09,SSW,209,0.0,1.0,61,0.00,,,0.00,VWS V14.00,2013-08-21 16:36:00,
2013-08-21 12:41:00,92.0,77.1,30.09,NW,326,0.0,1.0,62,0.00,,,0.00,VWS V14.00,2013-08-21 16:41:00,
2013-08-21 12:46:00,92.3,77.4,30.09,SSE,151,0.0,5.0,62,0.00,,,0.00,VWS V14.00,2013-08-21 16:46:00,
2013-08-21 12:51:00,92.6,77.2,30.09,NE,35,0.0,5.0,61,0.00,,,0.00,VWS V14.00,2013-08-21 16:51:00,
2013-08-21 12:56:00,92.8,76.4,30.09,South,187,0.0,10.0,59,0.00,,,0.00,VWS V14.00,2013-08-21 16:56:00,
2013-08-21 13:00:00,90.5,77.1,30.10,North,360,4.0,5.0,65,0.00,,,0.00,VWS V14.00,2013-08-21 17:00:00,
2013-08-21 13:01:00,92.7,77.3,30.09,SE,135,0.0,10.0,61,0.00,,,0.00,VWS V14.00,2013-08-21 17:01:00,
2013-08-21 13:06:00,92.1,77.2,30.09,NE,53,0.0,4.0,62,0.00,,,0.00,VWS V14.00,2013-08-21 17:06:00,
2013-08-21 13:11:00,91.7,77.3,30.09,NNW,342,3.0,4.0,63,0.00,,,0.00,VWS V14.00,2013-08-21 17:11:00,
2013-08-21 13:16:00,91.8,77.9,30.09,North,10,0.0,4.0,64,0.00,,,0.00,VWS V14.00,2013-08-21 17:16:00,
2013-08-21 13:21:00,91.9,77.5,30.09,North,9,0.0,5.0,63,0.00,,,0.00,VWS V14.00,2013-08-21 17:21:00,
2013-08-21 13:26:00,91.9,77.5,30.08,South,190,0.0,5.0,63,0.00,,,0.00,VWS V14.00,2013-08-21 17:26:00,
2013-08-21 13:30:00,91.8,76.9,30.09,South,180,0.0,4.0,62,0.00,,,0.00,VWS V14.00,2013-08-21 17:30:00,
2013-08-21 13:31:00,91.9,77.0,30.08,SSW,194,0.0,5.0,62,0.00,,,0.00,VWS V14.00,2013-08-21 17:31:00,
2013-08-21 13:36:00,92.2,76.8,30.08,WSW,248,0.0,1.0,61,0.00,,,0.00,VWS V14.00,2013-08-21 17:36:00,
2013-08-21 13:41:00,92.7,76.8,30.08,South,185,0.0,3.0,60,0.00,,,0.00,VWS V14.00,2013-08-21 17:41:00,
2013-08-21 13:46:00,92.6,76.7,30.07,ENE,59,0.0,3.0,60,0.00,,,0.00,VWS V14.00,2013-08-21 17:46:00,
2013-08-21 13:51:00,92.5,77.1,30.07,ENE,58,0.0,3.0,61,0.00,,,0.00,VWS V14.00,2013-08-21 17:51:00,
2013-08-21 13:56:00,92.4,77.0,30.06,ENE,64,0.0,3.0,61,0.00,,,0.00,VWS V14.00,2013-08-21 17:56:00,
2013-08-21 14:00:00,92.7,77.3,30.09,SE,134,0.0,10.0,61,0.00,,,0.00,VWS V14.00,2013-08-21 18:00:00,
2013-08-21 14:01:00,92.5,78.6,30.06,ENE,64,0.0,3.0,64,0.00,,,0.00,VWS V14.00,2013-08-21 18:01:00,
2013-08-21 14:06:00,92.4,78.0,30.07,NE,49,0.0,5.0,63,0.00,,,0.00,VWS V14.00,2013-08-21 18:06:00,
2013-08-21 14:11:00,91.8,77.4,30.07,NE,48,0.0,5.0,63,0.00,,,0.00,VWS V14.00,2013-08-21 18:11:00,
2013-08-21 14:16:00,91.4,78.0,30.07,NE,36,0.0,5.0,65,0.00,,,0.00,VWS V14.00,2013-08-21 18:16:00,
2013-08-21 14:21:00,90.2,77.8,30.07,ENE,57,0.0,5.0,67,0.00,,,0.00,VWS V14.00,2013-08-21 18:21:00,
2013-08-21 14:26:00,89.2,76.8,30.07,ENE,64,0.0,5.0,67,0.00,,,0.00,VWS V14.00,2013-08-21 18:26:00,
2013-08-21 14:30:00,92.0,77.1,30.08,SSW,194,0.0,5.0,62,0.00,,,0.00,VWS V14.00,2013-08-21 18:30:00,
2013-08-21 14:31:00,88.5,76.2,30.06,ESE,122,0.0,5.0,67,0.00,,,0.00,VWS V14.00,2013-08-21 18:31:00,
2013-08-21 14:36:00,88.6,76.2,30.06,SE,144,0.0,6.0,67,0.00,,,0.00,VWS V14.00,2013-08-21 18:36:00,
2013-08-21 14:41:00,89.6,76.7,30.06,NNE,29,3.0,6.0,66,0.00,,,0.00,VWS V14.00,2013-08-21 18:41:00,
2013-08-21 14:46:00,90.5,76.7,30.06,ENE,74,3.0,7.0,64,0.00,,,0.00,VWS V14.00,2013-08-21 18:46:00,
2013-08-21 14:51:00,90.8,76.9,30.06,SSE,163,0.0,7.0,64,0.00,,,0.00,VWS V14.00,2013-08-21 18:51:00,
2013-08-21 14:56:00,90.6,76.8,30.05,NE,41,0.0,7.0,64,0.00,,,0.00,VWS V14.00,2013-08-21 18:56:00,
2013-08-21 15:00:00,92.6,78.7,30.06,ENE,64,0.0,3.0,64,0.00,,,0.00,VWS V14.00,2013-08-21 19:00:00,
2013-08-21 15:01:00,90.1,77.7,30.05,ENE,59,0.0,9.0,67,0.01,,,0.01,VWS V14.00,2013-08-21 19:01:00,
2013-08-21 15:06:00,88.5,77.5,30.06,NE,46,0.0,3.0,70,0.02,,,0.02,VWS V14.00,2013-08-21 19:06:00,
2013-08-21 15:11:00,85.4,74.9,30.08,East,92,0.0,12.0,71,0.12,,,0.12,VWS V14.00,2013-08-21 19:11:00,
2013-08-21 15:16:00,80.8,70.9,30.06,ENE,76,0.0,12.0,72,0.22,,,0.22,VWS V14.00,2013-08-21 19:16:00,
2013-08-21 15:21:00,78.7,68.5,30.06,East,79,0.0,12.0,71,0.31,,,0.31,VWS V14.00,2013-08-21 19:21:00,
2013-08-21 15:26:00,78.4,66.6,30.05,East,79,0.0,12.0,67,0.33,,,0.33,VWS V14.00,2013-08-21 19:26:00,
2013-08-21 15:30:00,88.5,76.2,30.06,ESE,122,0.0,5.0,67,0.00,,,0.00,VWS V14.00,2013-08-21 19:30:00,
2013-08-21 15:31:00,78.4,66.1,30.06,East,79,0.0,12.0,66,0.33,,,0.33,VWS V14.00,2013-08-21 19:31:00,
2013-08-21 15:36:00,78.5,65.8,30.06,NNE,17,0.0,0.0,65,0.33,,,0.33,VWS V14.00,2013-08-21 19:36:00,
2013-08-21 15:41:00,78.4,65.7,30.06,NNE,15,0.0,0.0,65,0.33,,,0.33,VWS V14.00,2013-08-21 19:41:00,
2013-08-21 15:46:00,78.2,65.5,30.05,NNE,15,0.0,0.0,65,0.35,,,0.35,VWS V14.00,2013-08-21 19:46:00,
2013-08-21 15:52:00,78.1,64.9,30.06,NNE,15,0.0,0.0,64,0.35,,,0.35,VWS V14.00,2013-08-21 19:52:00,
2013-08-21 15:57:00,78.2,65.0,30.06,NNE,15,0.0,0.0,64,0.35,,,0.35,VWS V14.00,2013-08-21 19:57:00,
2013-08-21 16:00:00,90.0,78.0,30.05,ENE,59,0.0,9.0,68,0.01,,,0.01,VWS V14.00,2013-08-21 20:00:00,
2013-08-21 16:02:00,78.4,65.2,30.05,NNE,15,0.0,0.0,64,0.35,,,0.35,VWS V14.00,2013-08-21 20:02:00,
2013-08-21 16:07:00,78.5,65.3,30.06,NNE,15,0.0,0.0,64,0.34,,,0.35,VWS V14.00,2013-08-21 20:07:00,
2013-08-21 16:12:00,78.7,65.5,30.05,NNE,15,0.0,0.0,64,0.34,,,0.35,VWS V14.00,2013-08-21 20:12:00,
2013-08-21 16:17:00,78.9,65.7,30.05,NNE,15,0.0,0.0,64,0.34,,,0.35,VWS V14.00,2013-08-21 20:17:00,
2013-08-21 16:22:00,79.2,66.0,30.08,East,90,1.0,1.0,64,0.41,,,0.42,VWS V14.00,2013-08-21 20:22:00,
2013-08-21 16:27:00,77.1,64.4,30.09,NNE,33,0.0,3.0,65,0.69,,,0.70,VWS V14.00,2013-08-21 20:27:00,
2013-08-21 16:30:00,78.4,66.1,30.06,East,79,0.0,12.0,66,0.33,,,0.33,VWS V14.00,2013-08-21 20:30:00,
2013-08-21 16:32:00,75.8,63.2,30.09,ENE,74,1.0,4.0,65,0.71,,,0.72,VWS V14.00,2013-08-21 20:32:00,
2013-08-21 16:37:00,75.4,62.8,30.08,ENE,67,0.0,1.0,65,0.39,,,0.72,VWS V14.00,2013-08-21 20:37:00,
2013-08-21 16:42:00,74.9,62.3,30.08,ENE,67,0.0,1.0,65,0.40,,,0.73,VWS V14.00,2013-08-21 20:42:00,
2013-08-21 16:47:00,74.6,62.1,30.08,ENE,67,0.0,1.0,65,0.40,,,0.73,VWS V14.00,2013-08-21 20:47:00,
2013-08-21 16:52:00,74.6,62.1,30.07,ENE,67,0.0,1.0,65,0.41,,,0.74,VWS V14.00,2013-08-21 20:52:00,
2013-08-21 16:57:00,74.5,62.0,30.07,ENE,67,0.0,1.0,65,0.41,,,0.74,VWS V14.00,2013-08-21 20:57:00,
2013-08-21 17:00:00,78.4,65.2,30.05,NNE,15,0.0,0.0,64,0.35,,,0.35,VWS V14.00,2013-08-21 21:00:00,
2013-08-21 17:02:00,74.3,61.8,30.07,ENE,67,0.0,0.0,65,0.39,,,0.74,VWS V14.00,2013-08-21 21:02:00,
2013-08-21 17:07:00,74.2,61.7,30.06,ENE,67,0.0,0.0,65,0.39,,,0.74,VWS V14.00,2013-08-21 21:07:00,
2013-08-21 17:12:00,74.1,61.6,30.06,ENE,67,0.0,0.0,65,0.39,,,0.74,VWS V14.00,2013-08-21 21:12:00,
2013-08-21 17:17:00,74.0,61.5,30.07,ENE,67,0.0,0.0,65,0.39,,,0.74,VWS V14.00,2013-08-21 21:17:00,
2013-08-21 17:22:00,73.9,61.4,30.07,ENE,67,0.0,0.0,65,0.39,,,0.74,VWS V14.00,2013-08-21 21:22:00,
2013-08-21 17:27:00,73.9,61.4,30.07,ENE,67,0.0,0.0,65,0.39,,,0.74,VWS V14.00,2013-08-21 21:27:00,
2013-08-21 17:30:00,75.8,63.2,30.09,ENE,76,1.0,4.0,65,0.71,,,0.72,VWS V14.00,2013-08-21 21:30:00,
2013-08-21 17:32:00,73.9,61.4,30.07,ENE,67,0.0,0.0,65,0.02,,,0.74,VWS V14.00,2013-08-21 21:32:00,
2013-08-21 17:37:00,73.9,61.4,30.08,ENE,67,0.0,0.0,65,0.02,,,0.74,VWS V14.00,2013-08-21 21:37:00,
2013-08-21 17:42:00,74.0,61.5,30.07,NNE,32,0.0,0.0,65,0.02,,,0.74,VWS V14.00,2013-08-21 21:42:00,
2013-08-21 17:47:00,74.1,61.6,30.07,NNE,32,0.0,0.0,65,0.02,,,0.74,VWS V14.00,2013-08-21 21:47:00,
2013-08-21 17:52:00,74.2,61.7,30.06,NNE,32,0.0,0.0,65,0.02,,,0.74,VWS V14.00,2013-08-21 21:52:00,
2013-08-21 17:57:00,74.4,61.9,30.07,NNE,32,0.0,0.0,65,0.02,,,0.74,VWS V14.00,2013-08-21 21:57:00,
2013-08-21 18:00:00,74.3,61.8,30.06,ENE,67,0.0,1.0,65,0.41,,,0.74,VWS V14.00,2013-08-21 22:00:00,
2013-08-21 18:02:00,74.6,62.1,30.07,NNE,32,0.0,0.0,65,0.00,,,0.74,VWS V14.00,2013-08-21 22:02:00,
2013-08-21 18:07:00,74.8,62.3,30.06,NNE,32,0.0,0.0,65,0.00,,,0.74,VWS V14.00,2013-08-21 22:07:00,
2013-08-21 18:12:00,75.1,63.0,30.06,NNE,32,0.0,0.0,66,0.00,,,0.74,VWS V14.00,2013-08-21 22:12:00,
2013-08-21 18:17:00,75.3,63.2,30.06,NNE,32,0.0,0.0,66,0.00,,,0.74,VWS V14.00,2013-08-21 22:17:00,
2013-08-21 18:22:00,75.3,63.2,30.07,NNE,32,0.0,0.0,66,0.00,,,0.74,VWS V14.00,2013-08-21 22:22:00,
2013-08-21 18:27:00,75.5,62.9,30.07,NNE,32,0.0,0.0,65,0.00,,,0.74,VWS V14.00,2013-08-21 22:27:00,
2013-08-21 18:30:00,73.9,61.4,30.07,ENE,67,0.0,0.0,65,0.39,,,0.74,VWS V14.00,2013-08-21 22:30:00,
2013-08-21 18:32:00,75.5,62.9,30.07,NNE,32,0.0,0.0,65,0.01,,,0.75,VWS V14.00,2013-08-21 22:32:00,
2013-08-21 18:37:00,75.6,63.0,30.07,NNE,32,0.0,0.0,65,0.01,,,0.75,VWS V14.00,2013-08-21 22:37:00,
2013-08-21 18:42:00,75.7,63.1,30.07,NNE,32,0.0,0.0,65,0.01,,,0.75,VWS V14.00,2013-08-21 22:42:00,
2013-08-21 18:47:00,75.9,63.3,30.07,NNE,32,0.0,0.0,65,0.01,,,0.75,VWS V14.00,2013-08-21 22:47:00,
2013-08-21 18:52:00,76.1,63.9,30.07,NNE,32,0.0,0.0,66,0.01,,,0.75,VWS V14.00,2013-08-21 22:52:00,
2013-08-21 18:57:00,76.2,64.0,30.07,NNE,32,0.0,0.0,66,0.01,,,0.75,VWS V14.00,2013-08-21 22:57:00,
2013-08-21 19:00:00,74.6,62.1,30.07,NNE,32,0.0,0.0,65,0.02,,,0.74,VWS V14.00,2013-08-21 23:00:00,
2013-08-21 19:02:00,76.3,64.1,30.07,NNE,32,0.0,0.0,66,0.01,,,0.75,VWS V14.00,2013-08-21 23:02:00,
2013-08-21 19:07:00,76.3,64.1,30.07,NNE,32,0.0,0.0,66,0.01,,,0.75,VWS V14.00,2013-08-21 23:07:00,
2013-08-21 19:12:00,76.4,64.2,30.07,NNE,32,0.0,0.0,66,0.01,,,0.75,VWS V14.00,2013-08-21 23:12:00,
2013-08-21 19:17:00,76.4,64.2,30.08,NNE,32,0.0,0.0,66,0.01,,,0.75,VWS V14.00,2013-08-21 23:17:00,
2013-08-21 19:22:00,76.5,64.3,30.08,NNE,32,0.0,0.0,66,0.01,,,0.75,VWS V14.00,2013-08-21 23:22:00,
2013-08-21 19:27:00,76.6,64.4,30.08,NNE,32,0.0,0.0,66,0.01,,,0.75,VWS V14.00,2013-08-21 23:27:00,
2013-08-21 19:30:00,75.5,62.9,30.07,NNE,32,0.0,0.0,65,0.01,,,0.75,VWS V14.00,2013-08-21 23:30:00,
2013-08-21 19:33:00,76.6,64.4,30.07,NNE,32,0.0,0.0,66,0.00,,,0.75,VWS V14.00,2013-08-21 23:33:00,
2013-08-21 19:38:00,76.6,64.4,30.07,NNE,32,0.0,0.0,66,0.00,,,0.75,VWS V14.00,2013-08-21 23:38:00,
2013-08-21 19:43:00,76.6,64.4,30.07,NNE,32,0.0,0.0,66,0.00,,,0.75,VWS V14.00,2013-08-21 23:43:00,
2013-08-21 19:48:00,76.6,64.4,30.07,NNE,32,0.0,0.0,66,0.00,,,0.75,VWS V14.00,2013-08-21 23:48:00,
2013-08-21 19:53:00,76.6,64.4,30.07,NNE,32,0.0,0.0,66,0.00,,,0.75,VWS V14.00,2013-08-21 23:53:00,
2013-08-21 19:58:00,76.6,64.4,30.06,NNE,32,0.0,0.0,66,0.00,,,0.75,VWS V14.00,2013-08-21 23:58:00,
2013-08-21 20:00:00,76.3,64.1,30.07,NNE,32,0.0,0.0,66,0.01,,,0.75,VWS V14.00,2013-08-22 00:00:00,
2013-08-21 20:03:00,76.7,64.5,30.07,NNE,32,0.0,0.0,66,0.00,,,0.75,VWS V14.00,2013-08-22 00:03:00,
2013-08-21 20:08:00,76.6,64.4,30.07,NNE,32,0.0,0.0,66,0.00,,,0.75,VWS V14.00,2013-08-22 00:08:00,
2013-08-21 20:13:00,76.6,64.4,30.07,NNE,32,0.0,0.0,66,0.00,,,0.75,VWS V14.00,2013-08-22 00:13:00,
2013-08-21 20:18:00,76.6,64.4,30.08,NNE,32,0.0,0.0,66,0.00,,,0.75,VWS V14.00,2013-08-22 00:18:00,
2013-08-21 20:23:00,76.6,64.4,30.08,NNE,32,0.0,0.0,66,0.00,,,0.75,VWS V14.00,2013-08-22 00:23:00,
2013-08-21 20:28:00,76.6,64.4,30.07,NNE,32,0.0,0.0,66,0.00,,,0.75,VWS V14.00,2013-08-22 00:28:00,
2013-08-21 20:30:00,76.6,64.4,30.08,NNE,32,0.0,0.0,66,0.01,,,0.75,VWS V14.00,2013-08-22 00:30:00,
2013-08-21 20:33:00,76.6,64.4,30.07,NNE,32,0.0,0.0,66,0.00,,,0.75,VWS V14.00,2013-08-22 00:33:00,
2013-08-21 20:38:00,76.6,64.4,30.07,NNE,32,0.0,0.0,66,0.00,,,0.75,VWS V14.00,2013-08-22 00:38:00,
2013-08-21 20:43:00,76.6,64.4,30.07,NNE,32,0.0,0.0,66,0.00,,,0.75,VWS V14.00,2013-08-22 00:43:00,
2013-08-21 20:48:00,76.6,64.4,30.07,NNE,32,0.0,0.0,66,0.00,,,0.75,VWS V14.00,2013-08-22 00:48:00,
2013-08-21 20:53:00,76.6,64.4,30.07,NNE,32,0.0,0.0,66,0.00,,,0.75,VWS V14.00,2013-08-22 00:53:00,
2013-08-21 20:58:00,76.6,64.4,30.07,NNE,32,0.0,0.0,66,0.00,,,0.75,VWS V14.00,2013-08-22 00:58:00,
2013-08-21 21:00:00,76.7,64.5,30.07,NNE,32,0.0,0.0,66,0.00,,,0.75,VWS V14.00,2013-08-22 01:00:00,
2013-08-21 21:03:00,76.6,64.4,30.07,NNE,32,0.0,0.0,66,0.00,,,0.75,VWS V14.00,2013-08-22 01:03:00,
2013-08-21 21:08:00,76.6,64.4,30.07,NNE,32,0.0,0.0,66,0.00,,,0.75,VWS V14.00,2013-08-22 01:08:00,
2013-08-21 21:13:00,76.6,64.4,30.07,NNE,32,0.0,0.0,66,0.00,,,0.75,VWS V14.00,2013-08-22 01:13:00,
2013-08-21 21:18:00,76.7,64.5,30.07,NNE,32,0.0,0.0,66,0.00,,,0.75,VWS V14.00,2013-08-22 01:18:00,
2013-08-21 21:23:00,76.7,64.5,30.07,NNE,32,0.0,0.0,66,0.00,,,0.75,VWS V14.00,2013-08-22 01:23:00,
2013-08-21 21:28:00,134.8,99.9,30.07,NNE,32,0.0,0.0,91,0.00,,,0.75,VWS V14.00,2013-08-22 01:28:00,
2013-08-21 21:30:00,76.6,64.4,30.07,NNE,32,0.0,0.0,66,0.00,,,0.75,VWS V14.00,2013-08-22 01:30:00,
2013-08-21 21:33:00,134.4,99.9,30.07,NNE,32,0.0,0.0,95,0.00,,,0.75,VWS V14.00,2013-08-22 01:33:00,
2013-08-21 21:38:00,134.4,99.9,30.07,NNE,32,0.0,0.0,72,0.00,,,0.75,VWS V14.00,2013-08-22 01:38:00,
2013-08-21 21:43:00,134.9,99.9,30.07,NNE,32,0.0,0.0,72,0.00,,,0.75,VWS V14.00,2013-08-22 01:43:00,
2013-08-21 21:48:00,102.6,90.5,30.07,NNE,32,0.0,0.0,69,0.00,,,0.75,VWS V14.00,2013-08-22 01:48:00,
2013-08-21 21:53:00,86.5,74.2,30.07,NNE,32,0.0,0.0,67,0.00,,,0.75,VWS V14.00,2013-08-22 01:53:00,
2013-08-21 21:58:00,86.4,74.2,30.07,NNE,32,0.0,0.0,67,0.00,,,0.75,VWS V14.00,2013-08-22 01:58:00,
2013-08-21 22:00:00,76.6,64.4,30.07,NNE,32,0.0,0.0,66,0.00,,,0.75,VWS V14.00,2013-08-22 02:00:00,
2013-08-21 22:03:00,86.4,74.2,30.07,NNE,32,0.0,0.0,67,0.00,,,0.75,VWS V14.00,2013-08-22 02:03:00,
2013-08-21 22:08:00,76.9,64.7,30.07,NNE,32,0.0,0.0,66,0.00,,,0.75,VWS V14.00,2013-08-22 02:08:00,
2013-08-21 22:13:00,76.9,64.7,30.07,NNE,32,0.0,0.0,66,0.00,,,0.75,VWS V14.00,2013-08-22 02:13:00,
2013-08-21 22:18:00,76.9,64.7,30.07,NNE,32,0.0,0.0,66,0.00,,,0.75,VWS V14.00,2013-08-22 02:18:00,
2013-08-21 22:23:00,76.8,64.6,30.07,NNE,32,0.0,0.0,66,0.00,,,0.75,VWS V14.00,2013-08-22 02:23:00,
2013-08-21 22:28:00,76.7,64.5,30.07,NNE,32,0.0,0.0,66,0.00,,,0.75,VWS V14.00,2013-08-22 02:28:00,
2013-08-21 22:30:00,134.3,99.9,30.07,NNE,32,0.0,0.0,95,0.00,,,0.75,VWS V14.00,2013-08-22 02:30:00,
2013-08-21 22:33:00,76.8,64.6,30.07,NNE,32,0.0,0.0,66,0.00,,,0.75,VWS V14.00,2013-08-22 02:33:00,
2013-08-21 22:38:00,76.8,64.6,30.07,NNE,32,0.0,0.0,66,0.00,,,0.75,VWS V14.00,2013-08-22 02:38:00,
2013-08-21 22:43:00,76.8,64.6,30.07,NNE,32,0.0,0.0,66,0.00,,,0.75,VWS V14.00,2013-08-22 02:43:00,
2013-08-21 22:49:00,76.8,64.6,30.07,NNE,32,0.0,0.0,66,0.00,,,0.75,VWS V14.00,2013-08-22 02:49:00,
2013-08-21 22:54:00,76.9,64.7,30.07,NNE,32,0.0,0.0,66,0.00,,,0.75,VWS V14.00,2013-08-22 02:54:00,
2013-08-21 22:59:00,77.0,65.2,30.07,NNE,32,0.0,0.0,67,0.00,,,0.75,VWS V14.00,2013-08-22 02:59:00,
2013-08-21 23:00:00,86.4,74.2,30.07,NNE,32,0.0,0.0,67,0.00,,,0.75,VWS V14.00,2013-08-22 03:00:00,
2013-08-21 23:04:00,77.0,64.8,30.08,NNE,32,0.0,0.0,66,0.00,,,0.75,VWS V14.00,2013-08-22 03:04:00,
2013-08-21 23:09:00,77.1,64.9,30.08,NNE,32,0.0,0.0,66,0.01,,,0.76,VWS V14.00,2013-08-22 03:09:00,
2013-08-21 23:14:00,77.1,64.9,30.08,NNE,32,0.0,0.0,66,0.01,,,0.76,VWS V14.00,2013-08-22 03:14:00,
2013-08-21 23:19:00,77.0,65.2,30.08,NNE,32,0.0,0.0,67,0.01,,,0.76,VWS V14.00,2013-08-22 03:19:00,
2013-08-21 23:24:00,77.0,65.2,30.08,NNE,32,0.0,0.0,67,0.01,,,0.76,VWS V14.00,2013-08-22 03:24:00,
2013-08-21 23:29:00,77.0,65.2,30.08,NNE,32,0.0,0.0,67,0.01,,,0.76,VWS V14.00,2013-08-22 03:29:00,
2013-08-21 23:30:00,76.8,64.6,30.07,NNE,32,0.0,1.0,66,0.00,,,0.75,VWS V14.00,2013-08-22 03:30:00,
2013-08-21 23:34:00,76.9,65.1,30.08,NNE,32,0.0,0.0,67,0.01,,,0.76,VWS V14.00,2013-08-22 03:34:00,
2013-08-21 23:39:00,76.9,65.1,30.08,NNE,32,0.0,0.0,67,0.01,,,0.76,VWS V14.00,2013-08-22 03:39:00,
2013-08-21 23:44:00,76.9,65.1,30.09,NNE,32,0.0,0.0,67,0.01,,,0.76,VWS V14.00,2013-08-22 03:44:00,
2013-08-21 23:49:00,77.0,65.2,30.09,NNE,32,0.0,0.0,67,0.01,,,0.76,VWS V14.00,2013-08-22 03:49:00,
2013-08-21 23:54:00,77.0,65.2,30.09,NNE,32,0.0,0.0,67,0.01,,,0.76,VWS V14.00,2013-08-22 03:54:00,
2013-08-21 23:59:00,77.0,65.2,30.09,NNE,32,0.0,0.0,67,0.01,,,0.76,VWS V14.00,2013-08-22 03:59:00,